createdAt,value
2018-09-16T00:02:25.635Z,99.90
2018-09-16T00:04:54.367Z,99.90
2018-09-16T00:07:23.825Z,99.90
2018-09-16T00:09:53.372Z,99.90
2018-09-16T00:12:22.219Z,99.90
2018-09-16T00:14:51.149Z,99.90
2018-09-16T00:17:21.001Z,99.90
2018-09-16T00:19:50.487Z,99.90
2018-09-16T00:22:19.323Z,99.90
2018-09-16T00:24:48.745Z,99.90
2018-09-16T00:27:17.541Z,99.90
2018-09-16T00:29:46.325Z,99.90
2018-09-16T00:32:20.261Z,99.90
2018-09-16T00:34:49.300Z,99.90
2018-09-16T00:37:18.399Z,99.90
2018-09-16T00:39:47.266Z,99.90
2018-09-16T00:42:16.493Z,99.90
2018-09-16T00:44:46.212Z,99.90
2018-09-16T00:47:15.162Z,99.90
2018-09-16T00:49:44.099Z,99.90
2018-09-16T00:52:13.673Z,99.90
2018-09-16T00:54:42.572Z,99.90
2018-09-16T00:57:11.684Z,99.90
2018-09-16T00:59:40.424Z,99.90
2018-09-16T01:02:09.941Z,99.90
2018-09-16T01:04:39.632Z,99.90
2018-09-16T01:07:08.493Z,99.90
2018-09-16T01:09:37.508Z,99.90
2018-09-16T01:12:07.082Z,99.90
2018-09-16T01:14:36.678Z,99.90
2018-09-16T01:17:06.197Z,99.90
2018-09-16T01:19:35.780Z,99.90
2018-09-16T01:22:04.609Z,99.90
2018-09-16T01:24:34.406Z,99.90
2018-09-16T01:27:03.376Z,99.90
2018-09-16T01:29:32.264Z,99.90
2018-09-16T01:32:01.077Z,99.90
2018-09-16T01:34:30.046Z,99.90
2018-09-16T01:36:59.549Z,99.90
2018-09-16T01:39:29.243Z,99.90
2018-09-16T01:41:58.005Z,99.90
2018-09-16T01:44:27.097Z,99.90
2018-09-16T01:46:55.949Z,99.90
2018-09-16T01:49:25.333Z,99.90
2018-09-16T01:51:54.596Z,99.90
2018-09-16T01:54:23.615Z,99.90
2018-09-16T01:56:52.576Z,99.90
2018-09-16T01:59:21.617Z,99.90
2018-09-16T02:01:51.096Z,99.90
2018-09-16T02:04:19.901Z,99.90
2018-09-16T02:06:48.824Z,99.90
2018-09-16T02:09:17.769Z,99.90
2018-09-16T02:11:47.198Z,99.90
2018-09-16T02:14:16.033Z,99.90
2018-09-16T02:16:44.803Z,99.90
2018-09-16T02:19:14.093Z,99.90
2018-09-16T02:21:43.610Z,99.90
2018-09-16T02:24:13.150Z,99.90
2018-09-16T02:26:42.716Z,99.90
2018-09-16T02:29:12.205Z,99.90
2018-09-16T02:31:41.039Z,99.90
2018-09-16T02:34:10.505Z,99.90
2018-09-16T02:36:39.442Z,99.90
2018-09-16T02:39:08.917Z,99.90
2018-09-16T02:41:38.031Z,99.90
2018-09-16T02:44:07.570Z,99.90
2018-09-16T02:46:36.366Z,99.90
2018-09-16T02:49:05.275Z,99.90
2018-09-16T02:51:34.180Z,99.90
2018-09-16T02:54:03.679Z,99.90
2018-09-16T02:56:32.418Z,99.90
2018-09-16T02:59:01.944Z,99.90
2018-09-16T03:01:31.395Z,99.90
2018-09-16T03:04:00.229Z,99.90
2018-09-16T03:06:33.609Z,99.90
2018-09-16T03:09:03.407Z,99.90
2018-09-16T03:11:32.418Z,99.90
2018-09-16T03:14:01.608Z,99.90
2018-09-16T03:16:30.509Z,99.90
2018-09-16T03:19:00.231Z,99.90
2018-09-16T03:21:28.973Z,99.90
2018-09-16T03:23:58.441Z,99.90
2018-09-16T03:26:27.966Z,99.90
2018-09-16T03:28:57.453Z,99.90
2018-09-16T03:31:27.092Z,99.90
2018-09-16T03:33:56.427Z,99.90
2018-09-16T03:36:25.529Z,99.90
2018-09-16T03:38:54.462Z,99.90
2018-09-16T03:41:23.247Z,99.90
2018-09-16T03:43:52.050Z,99.90
2018-09-16T03:46:21.114Z,99.90
2018-09-16T03:48:50.048Z,99.90
2018-09-16T03:51:19.370Z,99.90
2018-09-16T03:53:49.068Z,99.90
2018-09-16T03:56:17.884Z,99.90
2018-09-16T03:58:46.698Z,99.90
2018-09-16T04:01:15.982Z,99.90
2018-09-16T04:03:45.081Z,99.90
2018-09-16T04:06:13.822Z,99.90
2018-09-16T04:08:42.753Z,99.90
2018-09-16T04:11:11.542Z,99.90
2018-09-16T04:13:40.509Z,99.90
2018-09-16T04:16:09.905Z,99.90
2018-09-16T04:18:38.659Z,99.90
2018-09-16T04:21:08.207Z,99.90
2018-09-16T04:23:51.653Z,99.90
2018-09-16T04:26:20.478Z,99.90
2018-09-16T04:28:50.409Z,99.90
2018-09-16T04:31:19.181Z,99.90
2018-09-16T04:33:48.045Z,99.90
2018-09-16T04:36:16.946Z,99.90
2018-09-16T04:38:45.782Z,99.90
2018-09-16T04:41:15.160Z,99.90
2018-09-16T04:43:44.640Z,99.90
2018-09-16T04:46:13.870Z,99.90
2018-09-16T04:48:42.762Z,99.90
2018-09-16T04:51:11.515Z,99.90
2018-09-16T04:53:40.276Z,99.90
2018-09-16T04:56:10.459Z,99.90
2018-09-16T04:58:40.044Z,99.90
2018-09-16T05:01:08.962Z,99.90
2018-09-16T05:03:37.947Z,99.90
2018-09-16T05:06:06.721Z,99.90
2018-09-16T05:08:35.563Z,99.90
2018-09-16T05:11:04.493Z,99.90
2018-09-16T05:13:33.285Z,99.90
2018-09-16T05:16:03.045Z,99.90
2018-09-16T05:18:50.297Z,99.90
2018-09-16T05:21:38.369Z,99.90
2018-09-16T05:24:23.309Z,99.90
2018-09-16T05:26:52.786Z,99.90
2018-09-16T05:29:21.540Z,99.90
2018-09-16T05:31:51.020Z,99.90
2018-09-16T05:34:20.369Z,99.90
2018-09-16T05:36:49.160Z,99.90
2018-09-16T05:39:18.701Z,99.90
2018-09-16T05:41:47.747Z,99.90
2018-09-16T05:44:22.320Z,99.90
2018-09-16T05:46:51.213Z,99.90
2018-09-16T05:55:23.817Z,99.90
2018-09-16T05:58:05.784Z,99.90
2018-09-16T06:00:34.859Z,99.90
2018-09-16T06:03:04.367Z,99.90
2018-09-16T06:05:33.933Z,99.90
2018-09-16T06:08:02.923Z,99.90
2018-09-16T06:10:32.408Z,99.90
2018-09-16T06:13:01.904Z,99.90
2018-09-16T06:15:31.521Z,99.90
2018-09-16T06:18:01.102Z,99.90
2018-09-16T06:20:30.797Z,99.90
2018-09-16T06:22:59.601Z,99.90
2018-09-16T06:25:28.601Z,99.90
2018-09-16T06:27:58.214Z,99.90
2018-09-16T06:30:27.551Z,99.90
2018-09-16T06:32:56.350Z,99.90
2018-09-16T06:35:26.619Z,99.90
2018-09-16T06:37:55.405Z,99.90
2018-09-16T06:40:24.389Z,99.90
2018-09-16T06:42:54.544Z,99.90
2018-09-16T06:45:24.257Z,99.90
2018-09-16T06:47:53.098Z,99.90
2018-09-16T06:50:22.088Z,99.90
2018-09-16T06:52:50.871Z,99.90
2018-09-16T06:55:20.595Z,99.90
2018-09-16T06:57:49.768Z,99.90
2018-09-16T07:00:19.232Z,99.90
2018-09-16T07:02:47.964Z,99.90
2018-09-16T07:05:17.061Z,99.90
2018-09-16T07:07:46.033Z,99.90
2018-09-16T07:10:14.837Z,99.90
2018-09-16T07:12:44.407Z,99.90
2018-09-16T07:15:13.999Z,99.90
2018-09-16T07:17:43.314Z,99.90
2018-09-16T07:20:12.963Z,99.90
2018-09-16T07:25:38.639Z,99.90
2018-09-16T07:28:07.452Z,99.90
2018-09-16T07:30:36.318Z,99.90
2018-09-16T07:33:05.125Z,99.90
2018-09-16T07:35:34.728Z,99.90
2018-09-16T07:38:04.216Z,99.90
2018-09-16T07:40:33.746Z,99.90
2018-09-16T07:43:03.192Z,99.90
2018-09-16T07:45:32.032Z,99.90
2018-09-16T07:48:00.873Z,99.90
2018-09-16T07:50:29.891Z,99.90
2018-09-16T07:52:59.497Z,99.90
2018-09-16T07:55:28.325Z,99.90
2018-09-16T07:57:57.197Z,99.90
2018-09-16T08:00:26.100Z,99.90
2018-09-16T08:02:55.092Z,99.90
2018-09-16T08:05:24.189Z,99.90
2018-09-16T08:07:53.838Z,99.90
2018-09-16T08:10:22.677Z,99.90
2018-09-16T08:12:51.546Z,99.90
2018-09-16T08:15:21.292Z,99.90
2018-09-16T08:17:50.440Z,99.90
2018-09-16T08:20:19.513Z,99.90
2018-09-16T08:22:49.173Z,99.90
2018-09-16T08:25:18.470Z,99.90
2018-09-16T08:27:47.279Z,99.90
2018-09-16T08:30:16.302Z,97.50
2018-09-16T08:32:45.035Z,96.60
2018-09-16T08:35:14.774Z,94.50
2018-09-16T08:37:45.220Z,93.50
2018-09-16T08:40:14.016Z,92.00
2018-09-16T08:42:43.688Z,90.30
2018-09-16T08:48:21.199Z,89.30
2018-09-16T08:50:50.047Z,83.40
2018-09-16T08:53:18.900Z,81.40
2018-09-16T08:55:48.408Z,78.30
2018-09-16T08:58:17.317Z,76.20
2018-09-16T09:00:46.281Z,74.80
2018-09-16T09:03:15.000Z,71.40
2018-09-16T09:05:44.473Z,69.10
2018-09-16T09:08:20.829Z,70.60
2018-09-16T09:10:49.759Z,67.50
2018-09-16T09:13:18.960Z,67.00
2018-09-16T09:15:48.751Z,66.70
2018-09-16T09:18:17.472Z,65.70
2018-09-16T09:20:46.821Z,65.40
2018-09-16T09:23:15.592Z,65.30
2018-09-16T09:25:44.403Z,62.50
2018-09-16T09:28:13.271Z,63.70
2018-09-16T09:30:42.606Z,60.40
2018-09-16T09:33:11.517Z,61.10
2018-09-16T09:35:41.050Z,59.70
2018-09-16T09:38:09.863Z,60.60
2018-09-16T09:40:38.894Z,62.70
2018-09-16T09:43:07.748Z,60.90
2018-09-16T09:45:37.400Z,61.50
2018-09-16T09:48:06.333Z,61.20
2018-09-16T09:50:35.274Z,60.20
2018-09-16T09:53:03.883Z,61.10
2018-09-16T09:55:33.308Z,61.00
2018-09-16T09:58:02.002Z,60.50
2018-09-16T10:00:50.165Z,62.00
2018-09-16T10:03:19.875Z,58.80
2018-09-16T10:05:49.460Z,58.70
2018-09-16T10:08:18.410Z,59.80
2018-09-16T10:10:47.311Z,58.90
2018-09-16T10:13:15.913Z,57.50
2018-09-16T10:15:44.681Z,58.60
2018-09-16T10:18:14.333Z,58.90
2018-09-16T10:20:43.550Z,58.70
2018-09-16T10:23:13.036Z,59.50
2018-09-16T10:25:51.788Z,58.50
2018-09-16T10:28:20.750Z,58.80
2018-09-16T10:30:49.530Z,59.10
2018-09-16T10:33:25.304Z,59.00
2018-09-16T10:35:54.576Z,58.30
2018-09-16T10:38:23.275Z,58.50
2018-09-16T10:40:53.765Z,58.30
2018-09-16T10:43:28.970Z,57.60
2018-09-16T10:45:58.716Z,57.00
2018-09-16T10:48:28.782Z,56.80
2018-09-16T10:51:14.591Z,58.00
2018-09-16T10:53:43.820Z,57.00
2018-09-16T10:56:12.645Z,57.90
2018-09-16T10:58:41.303Z,57.00
2018-09-16T11:01:19.642Z,57.80
2018-09-16T11:03:53.565Z,57.60
2018-09-16T11:06:23.404Z,56.20
2018-09-16T11:08:52.938Z,58.50
2018-09-16T11:11:25.868Z,58.80
2018-09-16T11:13:55.766Z,57.30
2018-09-16T11:16:24.552Z,59.30
2018-09-16T11:18:53.274Z,58.90
2018-09-16T11:21:22.137Z,57.30
2018-09-16T11:23:52.539Z,58.40
2018-09-16T11:26:21.511Z,57.60
2018-09-16T11:28:50.168Z,58.20
2018-09-16T11:31:19.121Z,58.30
2018-09-16T11:33:48.568Z,57.50
2018-09-16T11:36:17.898Z,58.80
2018-09-16T11:38:47.164Z,56.70
2018-09-16T11:41:15.952Z,58.20
2018-09-16T11:43:44.817Z,59.30
2018-09-16T11:46:13.424Z,58.90
2018-09-16T11:48:42.724Z,58.50
2018-09-16T11:51:11.481Z,60.30
2018-09-16T11:53:40.825Z,58.00
2018-09-16T11:56:10.354Z,58.10
2018-09-16T11:58:39.245Z,58.30
2018-09-16T12:01:08.080Z,57.20
2018-09-16T12:03:37.059Z,58.60
2018-09-16T12:06:06.651Z,56.90
2018-09-16T12:08:35.473Z,56.40
2018-09-16T12:11:04.276Z,56.20
2018-09-16T12:13:33.068Z,55.40
2018-09-16T12:16:03.115Z,58.70
2018-09-16T12:18:31.767Z,59.00
2018-09-16T12:21:00.597Z,56.10
2018-09-16T12:23:30.527Z,55.90
2018-09-16T12:26:21.477Z,58.40
2018-09-16T12:28:50.980Z,59.10
2018-09-16T12:31:20.777Z,57.80
2018-09-16T12:33:49.710Z,55.90
2018-09-16T12:39:13.868Z,58.40
2018-09-16T12:41:43.197Z,59.00
2018-09-16T12:44:15.550Z,57.80
2018-09-16T12:46:45.390Z,58.80
2018-09-16T12:49:14.643Z,59.00
2018-09-16T12:51:46.158Z,58.80
2018-09-16T12:54:15.623Z,57.90
2018-09-16T12:56:48.403Z,59.00
2018-09-16T12:59:17.403Z,58.40
2018-09-16T13:01:46.280Z,60.40
2018-09-16T13:04:15.044Z,61.80
2018-09-16T13:06:43.848Z,61.10
2018-09-16T13:09:12.813Z,62.50
2018-09-16T13:11:48.266Z,60.00
2018-09-16T13:14:17.128Z,61.80
2018-09-16T13:16:46.073Z,62.50
2018-09-16T13:19:15.196Z,62.70
2018-09-16T13:24:41.432Z,62.00
2018-09-16T13:27:10.292Z,61.50
2018-09-16T13:32:34.826Z,61.60
2018-09-16T13:35:04.135Z,59.30
2018-09-16T13:37:32.951Z,59.50
2018-09-16T13:40:06.015Z,61.80
2018-09-16T13:45:27.647Z,59.60
2018-09-16T13:48:16.067Z,61.30
2018-09-16T13:50:44.841Z,62.40
2018-09-16T13:53:14.268Z,61.90
2018-09-16T13:55:43.337Z,61.30
2018-09-16T13:58:12.235Z,62.50
2018-09-16T14:00:40.972Z,63.80
2018-09-16T14:03:09.772Z,64.70
2018-09-16T14:05:38.961Z,65.90
2018-09-16T14:08:26.480Z,67.00
2018-09-16T14:10:55.417Z,65.70
2018-09-16T14:13:24.243Z,66.60
2018-09-16T14:15:53.319Z,65.90
2018-09-16T14:18:22.305Z,66.10
2018-09-16T14:20:52.117Z,64.80
2018-09-16T14:23:21.042Z,66.90
2018-09-16T14:25:49.849Z,67.60
2018-09-16T14:28:18.589Z,65.70
2018-09-16T14:31:11.496Z,62.20
2018-09-16T14:33:40.235Z,63.10
2018-09-16T14:36:10.286Z,64.30
2018-09-16T14:38:39.265Z,66.10
2018-09-16T14:41:25.764Z,66.40
2018-09-16T14:43:54.653Z,66.90
2018-09-16T14:46:23.637Z,67.90
2018-09-16T14:48:53.176Z,68.40
2018-09-16T14:51:22.899Z,69.10
2018-09-16T14:54:02.874Z,70.10
2018-09-16T14:56:32.438Z,68.90
2018-09-16T14:59:01.982Z,69.30
2018-09-16T15:01:31.470Z,71.90
2018-09-16T15:04:00.203Z,70.00
2018-09-16T15:06:29.752Z,70.50
2018-09-16T15:08:58.636Z,72.20
2018-09-16T15:11:44.921Z,72.50
2018-09-16T15:14:13.895Z,73.60
2018-09-16T15:16:54.857Z,74.90
2018-09-16T15:19:28.090Z,74.00
2018-09-16T15:21:57.009Z,75.10
2018-09-16T15:24:25.828Z,76.50
2018-09-16T15:26:55.645Z,77.90
2018-09-16T15:29:24.575Z,79.80
2018-09-16T15:31:53.439Z,82.00
2018-09-16T15:34:23.061Z,79.60
2018-09-16T15:36:51.908Z,80.00
2018-09-16T15:39:20.776Z,82.50
2018-09-16T15:41:49.729Z,83.10
2018-09-16T15:44:19.309Z,84.70
2018-09-16T15:46:48.758Z,83.90
2018-09-16T15:49:17.550Z,84.20
2018-09-16T15:51:47.056Z,85.30
2018-09-16T15:54:15.879Z,85.90
2018-09-16T15:56:44.630Z,87.60
2018-09-16T15:59:31.068Z,90.10
2018-09-16T16:01:59.976Z,91.30
2018-09-16T16:04:29.305Z,91.50
2018-09-16T16:06:58.084Z,91.80
2018-09-16T16:09:27.005Z,91.70
2018-09-16T16:11:56.504Z,92.30
2018-09-16T16:14:25.471Z,93.30
2018-09-16T16:16:54.245Z,94.20
2018-09-16T16:19:23.141Z,95.20
2018-09-16T16:21:52.077Z,96.80
2018-09-16T16:24:21.182Z,97.50
2018-09-16T16:26:50.254Z,96.90
2018-09-16T16:29:19.738Z,97.20
2018-09-16T16:31:49.728Z,98.90
2018-09-16T16:34:18.773Z,99.90
2018-09-16T16:36:48.185Z,99.90
2018-09-16T16:39:17.936Z,99.90
2018-09-16T16:41:47.278Z,99.90
2018-09-16T16:44:16.073Z,99.90
2018-09-16T16:46:44.965Z,99.90
2018-09-16T16:49:13.817Z,99.90
2018-09-16T16:51:43.330Z,99.90
2018-09-16T16:54:12.225Z,99.90
2018-09-16T17:02:40.101Z,99.90
2018-09-16T17:05:09.049Z,99.90
2018-09-16T17:07:38.659Z,99.90
2018-09-16T17:10:07.596Z,99.90
2018-09-16T17:12:44.681Z,99.90
2018-09-16T17:15:14.321Z,99.90
2018-09-16T17:17:43.261Z,99.90
2018-09-16T17:20:12.221Z,99.90
2018-09-16T17:22:46.703Z,99.90
2018-09-16T17:25:26.901Z,99.90
2018-09-16T17:28:15.582Z,99.90
2018-09-16T17:30:44.570Z,99.90
2018-09-16T17:33:14.019Z,99.90
2018-09-16T17:35:42.943Z,99.90
2018-09-16T17:38:11.778Z,99.90
2018-09-16T17:40:40.778Z,99.90
2018-09-16T17:43:09.846Z,99.90
2018-09-16T17:45:38.828Z,99.90
2018-09-16T17:48:07.765Z,99.90
2018-09-16T17:50:36.668Z,99.90
2018-09-16T17:53:05.681Z,99.90
2018-09-16T17:55:35.924Z,99.90
2018-09-16T17:58:05.831Z,99.90
2018-09-16T18:00:36.305Z,99.90
2018-09-16T18:03:05.164Z,99.90
2018-09-16T18:05:34.464Z,99.90
2018-09-16T18:10:57.856Z,99.90
2018-09-16T18:13:27.459Z,99.90
2018-09-16T18:15:56.897Z,99.90
2018-09-16T18:18:26.562Z,99.90
2018-09-16T18:20:56.067Z,99.90
2018-09-16T18:23:25.758Z,99.90
2018-09-16T18:25:54.463Z,99.90
2018-09-16T18:28:23.408Z,99.90
2018-09-16T18:30:52.873Z,99.90
2018-09-16T18:33:21.823Z,99.90
2018-09-16T18:35:50.656Z,99.90
2018-09-16T18:38:19.506Z,99.90
2018-09-16T18:40:48.453Z,99.90
2018-09-16T18:43:17.337Z,99.90
2018-09-16T18:45:46.641Z,99.90
2018-09-16T18:48:16.184Z,99.90
2018-09-16T18:50:45.640Z,99.90
2018-09-16T18:53:15.037Z,99.90
2018-09-16T18:55:44.684Z,99.90
2018-09-16T18:58:13.471Z,99.90
2018-09-16T19:00:43.128Z,99.90
2018-09-16T19:03:12.615Z,99.90
2018-09-16T19:05:41.625Z,99.90
2018-09-16T19:08:10.617Z,99.90
2018-09-16T19:10:39.568Z,99.90
2018-09-16T19:13:09.581Z,99.90
2018-09-16T19:15:38.576Z,99.90
2018-09-16T19:18:07.965Z,99.90
2018-09-16T19:20:37.929Z,99.90
2018-09-16T19:23:06.921Z,99.90
2018-09-16T19:25:35.805Z,99.90
2018-09-16T19:28:04.648Z,99.90
2018-09-16T19:30:41.710Z,99.90
2018-09-16T19:33:10.840Z,99.90
2018-09-16T19:35:39.596Z,99.90
2018-09-16T19:38:09.232Z,99.90
2018-09-16T19:40:38.699Z,99.90
2018-09-16T19:43:08.356Z,99.90
2018-09-16T19:45:37.267Z,99.90
2018-09-16T19:48:06.257Z,99.90
2018-09-16T19:50:35.777Z,99.90
2018-09-16T19:53:05.217Z,99.90
2018-09-16T19:55:34.105Z,99.90
2018-09-16T19:58:02.959Z,99.90
2018-09-16T20:00:44.840Z,99.90
2018-09-16T20:03:14.499Z,99.90
2018-09-16T20:05:43.474Z,99.90
2018-09-16T20:08:12.361Z,99.90
2018-09-16T20:10:41.205Z,99.90
2018-09-16T20:13:09.975Z,99.90
2018-09-16T20:15:39.170Z,99.90
2018-09-16T20:18:08.144Z,99.90
2018-09-16T20:20:37.044Z,99.90
2018-09-16T20:23:09.313Z,99.90
2018-09-16T20:25:38.234Z,99.90
2018-09-16T20:28:07.466Z,99.90
2018-09-16T20:30:36.378Z,99.90
2018-09-16T20:33:05.594Z,99.90
2018-09-16T20:35:34.990Z,99.90
2018-09-16T20:38:03.964Z,99.90
2018-09-16T20:40:32.776Z,99.90
2018-09-16T20:43:01.756Z,99.90
2018-09-16T20:45:30.670Z,99.90
2018-09-16T20:48:00.227Z,99.90
2018-09-16T20:50:30.917Z,99.90
2018-09-16T20:53:00.378Z,99.90
2018-09-16T20:55:29.949Z,99.90
2018-09-16T20:57:59.521Z,99.90
2018-09-16T21:00:28.500Z,99.90
2018-09-16T21:02:57.438Z,99.90
2018-09-16T21:05:27.149Z,99.90
2018-09-16T21:07:56.648Z,99.90
2018-09-16T21:10:26.289Z,99.90
2018-09-16T21:12:55.691Z,99.90
2018-09-16T21:15:24.551Z,99.90
2018-09-16T21:17:53.316Z,99.90
2018-09-16T21:20:22.316Z,99.90
2018-09-16T21:22:51.974Z,99.90
2018-09-16T21:25:21.446Z,99.90
2018-09-16T21:27:51.190Z,99.90
2018-09-16T21:30:20.497Z,99.90
2018-09-16T21:32:49.688Z,99.90
2018-09-16T21:35:18.621Z,99.90
2018-09-16T21:37:47.426Z,99.90
2018-09-16T21:40:16.856Z,99.90
2018-09-16T21:42:45.636Z,99.90
2018-09-16T21:45:15.041Z,99.90
2018-09-16T21:47:44.517Z,99.90
2018-09-16T21:50:13.401Z,99.90
2018-09-16T21:52:42.440Z,99.90
2018-09-16T21:55:12.262Z,99.90
2018-09-16T21:57:41.271Z,99.90
2018-09-16T22:00:10.265Z,99.90
2018-09-16T22:02:39.072Z,99.90
2018-09-16T22:05:07.976Z,99.90
2018-09-16T22:07:36.907Z,99.90
2018-09-16T22:10:06.445Z,99.90
2018-09-16T22:12:35.275Z,99.90
2018-09-16T22:15:04.080Z,99.90
2018-09-16T22:17:33.013Z,99.90
2018-09-16T22:20:01.823Z,99.90
2018-09-16T22:22:31.433Z,99.90
2018-09-16T22:25:00.425Z,99.90
2018-09-16T22:27:29.353Z,99.90
2018-09-16T22:29:58.986Z,99.90
2018-09-16T22:32:28.366Z,99.90
2018-09-16T22:34:57.227Z,99.90
2018-09-16T22:37:26.547Z,99.90
2018-09-16T22:39:55.366Z,99.90
2018-09-16T22:42:24.820Z,99.90
2018-09-16T22:44:55.408Z,99.90
2018-09-16T22:47:24.733Z,99.90
2018-09-16T22:49:53.913Z,99.90
2018-09-16T22:52:22.773Z,99.90
2018-09-16T22:54:52.310Z,99.90
2018-09-16T22:57:21.221Z,99.90
2018-09-16T22:59:50.581Z,99.90
2018-09-16T23:02:20.193Z,99.90
2018-09-16T23:04:49.652Z,99.90
2018-09-16T23:07:20.177Z,99.90
2018-09-16T23:09:48.953Z,99.90
2018-09-16T23:12:17.753Z,99.90
2018-09-16T23:14:46.702Z,99.90
2018-09-16T23:17:15.504Z,99.90
2018-09-16T23:19:44.981Z,99.90
2018-09-16T23:22:14.608Z,99.90
2018-09-16T23:24:43.505Z,99.90
2018-09-16T23:27:12.252Z,99.90
2018-09-16T23:29:41.628Z,99.90
2018-09-16T23:32:10.537Z,99.90
2018-09-16T23:34:39.313Z,99.90
2018-09-16T23:37:08.152Z,99.90
2018-09-16T23:39:37.257Z,99.90
2018-09-16T23:42:06.066Z,99.90
2018-09-16T23:44:35.598Z,99.90
2018-09-16T23:47:04.976Z,99.90
2018-09-16T23:49:34.602Z,99.90
2018-09-16T23:52:03.544Z,99.90
2018-09-16T23:54:32.589Z,99.90
2018-09-16T23:57:02.162Z,99.90
2018-09-16T23:59:30.992Z,99.90
